sensor_id;sensor_type;location;lat;lon;timestamp;pressure;altitude;pressure_sealevel;temperature;humidity
71239;BME280;61342;51.442;7.370;2022-12-07T00:01:03;100113.69;;;6.56;91.27
71239;BME280;61342;51.442;7.370;2022-12-07T00:02:04;100094.09;;;6.44;91.10
71239;BME280;61342;51.442;7.370;2022-12-07T00:03:04;100113.91;;;6.53;91.29
71239;BME280;61342;51.442;7.370;2022-12-07T00:04:07;100125.88;;;6.57;91.37
71239;BME280;61342;51.442;7.370;2022-12-07T00:05:15;100113.13;;;6.52;91.24
71239;BME280;61342;51.442;7.370;2022-12-07T00:06:19;100119.38;;;6.56;91.11
71239;BME280;61342;51.442;7.370;2022-12-07T00:07:19;100124.06;;;6.59;90.91
71239;BME280;61342;51.442;7.370;2022-12-07T00:08:20;100125.44;;;6.64;91.03
71239;BME280;61342;51.442;7.370;2022-12-07T00:09:21;100107.19;;;6.56;91.73
71239;BME280;61342;51.442;7.370;2022-12-07T00:10:21;100105.63;;;6.55;91.31
71239;BME280;61342;51.442;7.370;2022-12-07T00:11:22;100125.44;;;6.64;91.47
71239;BME280;61342;51.442;7.370;2022-12-07T00:12:23;100124.13;;;6.65;91.28
71239;BME280;61342;51.442;7.370;2022-12-07T00:13:23;100112.16;;;6.61;91.14
71239;BME280;61342;51.442;7.370;2022-12-07T00:14:24;100106.41;;;6.55;91.20
71239;BME280;61342;51.442;7.370;2022-12-07T00:15:24;100123.84;;;6.63;91.43
71239;BME280;61342;51.442;7.370;2022-12-07T00:16:27;100118.41;;;6.65;91.16
71239;BME280;61342;51.442;7.370;2022-12-07T00:17:28;100124.41;;;6.67;90.99
71239;BME280;61342;51.442;7.370;2022-12-07T00:18:28;100118.91;;;6.63;91.22
71239;BME280;61342;51.442;7.370;2022-12-07T00:19:29;100118.69;;;6.67;91.32
71239;BME280;61342;51.442;7.370;2022-12-07T00:20:29;100121.28;;;6.65;91.28
71239;BME280;61342;51.442;7.370;2022-12-07T00:21:32;100127.28;;;6.67;91.09
71239;BME280;61342;51.442;7.370;2022-12-07T00:22:33;100124.94;;;6.65;91.10
71239;BME280;61342;51.442;7.370;2022-12-07T00:23:33;100130.91;;;6.67;91.12
71239;BME280;61342;51.442;7.370;2022-12-07T00:24:34;100136.59;;;6.67;91.29
71239;BME280;61342;51.442;7.370;2022-12-07T00:25:34;100116.56;;;6.62;91.28
71239;BME280;61342;51.442;7.370;2022-12-07T00:26:37;100116.34;;;6.65;91.06
71239;BME280;61342;51.442;7.370;2022-12-07T00:27:37;100123.41;;;6.70;91.33
71239;BME280;61342;51.442;7.370;2022-12-07T00:28:38;100123.13;;;6.68;91.51
71239;BME280;61342;51.442;7.370;2022-12-07T00:29:38;100123.41;;;6.70;91.20
71239;BME280;61342;51.442;7.370;2022-12-07T00:30:39;100123.41;;;6.70;91.23
71239;BME280;61342;51.442;7.370;2022-12-07T00:31:39;100109.03;;;6.59;91.02
71239;BME280;61342;51.442;7.370;2022-12-07T00:32:42;100115.81;;;6.61;91.36
71239;BME280;61342;51.442;7.370;2022-12-07T00:33:46;100116.63;;;6.67;91.08
71239;BME280;61342;51.442;7.370;2022-12-07T00:34:53;100111.63;;;6.62;91.40
71239;BME280;61342;51.442;7.370;2022-12-07T00:35:58;100110.34;;;6.63;91.17
71239;BME280;61342;51.442;7.370;2022-12-07T00:36:59;100119.47;;;6.67;91.20
71239;BME280;61342;51.442;7.370;2022-12-07T00:37:59;100109.28;;;6.61;91.21
71239;BME280;61342;51.442;7.370;2022-12-07T00:39:03;100101.19;;;6.54;91.37
71239;BME280;61342;51.442;7.370;2022-12-07T00:40:13;100101.19;;;6.54;91.00
71239;BME280;61342;51.442;7.370;2022-12-07T00:41:17;100108.00;;;6.62;91.13
71239;BME280;61342;51.442;7.370;2022-12-07T00:42:18;100109.59;;;6.63;91.29
71239;BME280;61342;51.442;7.370;2022-12-07T00:43:18;100088.19;;;6.53;91.01
71239;BME280;61342;51.442;7.370;2022-12-07T00:44:19;100091.06;;;6.53;91.08
71239;BME280;61342;51.442;7.370;2022-12-07T00:45:22;100096.53;;;6.56;91.12
71239;BME280;61342;51.442;7.370;2022-12-07T00:46:23;100122.63;;;6.69;91.24
71239;BME280;61342;51.442;7.370;2022-12-07T00:47:23;100091.38;;;6.60;91.27
71239;BME280;61342;51.442;7.370;2022-12-07T00:48:24;100111.19;;;6.69;91.10
71239;BME280;61342;51.442;7.370;2022-12-07T00:49:25;100120.03;;;6.71;90.99
71239;BME280;61342;51.442;7.370;2022-12-07T00:50:25;100100.22;;;6.62;91.27
71239;BME280;61342;51.442;7.370;2022-12-07T00:51:26;100091.34;;;6.55;91.25
71239;BME280;61342;51.442;7.370;2022-12-07T00:52:26;100096.81;;;6.58;91.17
71239;BME280;61342;51.442;7.370;2022-12-07T00:53:27;100096.81;;;6.58;90.86
71239;BME280;61342;51.442;7.370;2022-12-07T00:54:27;100095.84;;;6.67;90.93
71239;BME280;61342;51.442;7.370;2022-12-07T00:55:28;100100.00;;;6.66;91.40
71239;BME280;61342;51.442;7.370;2022-12-07T00:56:29;100099.72;;;6.64;91.25
71239;BME280;61342;51.442;7.370;2022-12-07T00:57:30;100095.56;;;6.65;91.24
71239;BME280;61342;51.442;7.370;2022-12-07T00:58:31;100090.88;;;6.62;90.93
71239;BME280;61342;51.442;7.370;2022-12-07T00:59:31;100096.06;;;6.63;91.15
71239;BME280;61342;51.442;7.370;2022-12-07T01:00:32;100097.91;;;6.66;91.37
71239;BME280;61342;51.442;7.370;2022-12-07T01:01:35;100083.59;;;6.61;91.01
71239;BME280;61342;51.442;7.370;2022-12-07T01:02:36;100098.19;;;6.68;91.19
71239;BME280;61342;51.442;7.370;2022-12-07T01:03:37;100089.09;;;6.64;91.03
71239;BME280;61342;51.442;7.370;2022-12-07T01:04:37;100095.38;;;6.74;91.12
71239;BME280;61342;51.442;7.370;2022-12-07T01:05:38;100092.19;;;6.66;91.17
71239;BME280;61342;51.442;7.370;2022-12-07T01:06:39;100076.06;;;6.58;91.23
71239;BME280;61342;51.442;7.370;2022-12-07T01:07:39;100086.00;;;6.68;90.84
71239;BME280;61342;51.442;7.370;2022-12-07T01:08:39;100090.97;;;6.73;91.00
71239;BME280;61342;51.442;7.370;2022-12-07T01:09:40;100107.09;;;6.76;91.31
71239;BME280;61342;51.442;7.370;2022-12-07T01:10:40;100096.41;;;6.71;91.00
71239;BME280;61342;51.442;7.370;2022-12-07T01:11:41;100101.66;;;6.78;91.13
71239;BME280;61342;51.442;7.370;2022-12-07T01:12:41;100085.22;;;6.67;91.02
71239;BME280;61342;51.442;7.370;2022-12-07T01:13:42;100107.34;;;6.78;91.14
71239;BME280;61342;51.442;7.370;2022-12-07T01:14:43;100102.66;;;6.75;91.12
71239;BME280;61342;51.442;7.370;2022-12-07T01:15:44;100095.38;;;6.74;91.09
71239;BME280;61342;51.442;7.370;2022-12-07T01:16:45;100095.13;;;6.72;91.33
71239;BME280;61342;51.442;7.370;2022-12-07T01:17:45;100089.84;;;6.65;91.11
71239;BME280;61342;51.442;7.370;2022-12-07T01:18:47;100089.63;;;6.68;90.85
71239;BME280;61342;51.442;7.370;2022-12-07T01:19:48;100103.19;;;6.73;91.07
71239;BME280;61342;51.442;7.370;2022-12-07T01:21:09;100105.22;;;6.73;91.15
71239;BME280;61342;51.442;7.370;2022-12-07T01:22:10;100107.84;;;6.71;91.12
71239;BME280;61342;51.442;7.370;2022-12-07T01:23:10;100106.81;;;6.74;91.15
71239;BME280;61342;51.442;7.370;2022-12-07T01:24:11;100089.59;;;6.63;90.99
71239;BME280;61342;51.442;7.370;2022-12-07T01:25:12;100086.50;;;6.66;90.93
71239;BME280;61342;51.442;7.370;2022-12-07T01:26:15;100097.19;;;6.71;90.89
71239;BME280;61342;51.442;7.370;2022-12-07T01:27:16;100088.34;;;6.69;90.94
71239;BME280;61342;51.442;7.370;2022-12-07T01:28:16;100089.59;;;6.63;91.51
71239;BME280;61342;51.442;7.370;2022-12-07T01:29:17;100093.56;;;6.71;90.99
71239;BME280;61342;51.442;7.370;2022-12-07T01:30:17;100091.94;;;6.64;91.15
71239;BME280;61342;51.442;7.370;2022-12-07T01:31:20;100087.50;;;6.63;91.03
71239;BME280;61342;51.442;7.370;2022-12-07T01:32:21;100101.31;;;6.70;91.08
71239;BME280;61342;51.442;7.370;2022-12-07T01:33:21;100086.75;;;6.63;91.12
71239;BME280;61342;51.442;7.370;2022-12-07T01:34:22;100076.34;;;6.60;90.91
71239;BME280;61342;51.442;7.370;2022-12-07T01:35:22;100087.00;;;6.65;91.09
71239;BME280;61342;51.442;7.370;2022-12-07T01:36:35;100094.03;;;6.64;91.08
71239;BME280;61342;51.442;7.370;2022-12-07T01:37:37;100085.47;;;6.64;91.25
71239;BME280;61342;51.442;7.370;2022-12-07T01:38:38;100102.88;;;6.71;91.22
71239;BME280;61342;51.442;7.370;2022-12-07T01:39:39;100095.91;;;6.72;91.02
71239;BME280;61342;51.442;7.370;2022-12-07T01:40:39;100101.09;;;6.74;91.11
71239;BME280;61342;51.442;7.370;2022-12-07T01:41:40;100101.88;;;6.74;91.05
71239;BME280;61342;51.442;7.370;2022-12-07T01:42:43;100093.81;;;6.73;90.98
71239;BME280;61342;51.442;7.370;2022-12-07T01:46:18;100106.81;;;6.74;91.16
71239;BME280;61342;51.442;7.370;2022-12-07T01:47:18;100103.69;;;6.72;90.99
71239;BME280;61342;51.442;7.370;2022-12-07T01:48:23;100108.88;;;6.73;91.05
71239;BME280;61342;51.442;7.370;2022-12-07T01:50:33;100104.47;;;6.72;90.99
71239;BME280;61342;51.442;7.370;2022-12-07T01:51:34;100105.53;;;6.75;91.08
71239;BME280;61342;51.442;7.370;2022-12-07T01:52:36;100103.94;;;6.74;91.17
71239;BME280;61342;51.442;7.370;2022-12-07T01:53:41;100102.13;;;6.71;91.05
71239;BME280;61342;51.442;7.370;2022-12-07T01:54:47;100105.78;;;6.77;91.29
71239;BME280;61342;51.442;7.370;2022-12-07T01:55:52;100104.25;;;6.76;91.06
71239;BME280;61342;51.442;7.370;2022-12-07T01:56:54;100096.16;;;6.74;90.93
71239;BME280;61342;51.442;7.370;2022-12-07T01:57:56;100098.03;;;6.77;91.26
71239;BME280;61342;51.442;7.370;2022-12-07T01:58:58;100105.78;;;6.77;91.35
71239;BME280;61342;51.442;7.370;2022-12-07T02:00:03;100105.31;;;6.78;91.28
71239;BME280;61342;51.442;7.370;2022-12-07T02:01:04;100100.88;;;6.77;91.16
71239;BME280;61342;51.442;7.370;2022-12-07T02:02:10;100101.66;;;6.78;91.16
71239;BME280;61342;51.442;7.370;2022-12-07T02:03:19;100100.06;;;6.77;91.01
71239;BME280;61342;51.442;7.370;2022-12-07T02:04:22;100097.50;;;6.79;91.30
71239;BME280;61342;51.442;7.370;2022-12-07T02:05:25;100092.56;;;6.79;91.02
71239;BME280;61342;51.442;7.370;2022-12-07T02:06:25;100094.66;;;6.79;91.15
71239;BME280;61342;51.442;7.370;2022-12-07T02:07:27;100091.03;;;6.78;91.04
71239;BME280;61342;51.442;7.370;2022-12-07T02:08:28;100099.06;;;6.80;91.32
71239;BME280;61342;51.442;7.370;2022-12-07T02:09:29;100096.22;;;6.80;91.11
71239;BME280;61342;51.442;7.370;2022-12-07T02:10:31;100099.06;;;6.80;91.20
71239;BME280;61342;51.442;7.370;2022-12-07T02:11:32;100091.50;;;6.77;91.33
71239;BME280;61342;51.442;7.370;2022-12-07T02:12:32;100076.69;;;6.73;91.18
71239;BME280;61342;51.442;7.370;2022-12-07T02:13:35;100089.19;;;6.81;91.23
71239;BME280;61342;51.442;7.370;2022-12-07T02:14:36;100083.75;;;6.77;91.10
71239;BME280;61342;51.442;7.370;2022-12-07T02:17:03;100075.69;;;6.76;91.08
71239;BME280;61342;51.442;7.370;2022-12-07T02:18:30;100082.94;;;6.77;91.28
71239;BME280;61342;51.442;7.370;2022-12-07T02:20:03;100090.22;;;6.78;91.43
71239;BME280;61342;51.442;7.370;2022-12-07T02:23:00;100089.66;;;6.74;91.03
71239;BME280;61342;51.442;7.370;2022-12-07T02:30:16;100089.41;;;6.72;91.35
71239;BME280;61342;51.442;7.370;2022-12-07T02:31:20;100087.31;;;6.72;90.99
71239;BME280;61342;51.442;7.370;2022-12-07T02:33:49;100083.97;;;6.74;91.20
71239;BME280;61342;51.442;7.370;2022-12-07T02:36:15;100089.66;;;6.74;91.40
71239;BME280;61342;51.442;7.370;2022-12-07T02:39:57;100091.47;;;6.71;91.32
71239;BME280;61342;51.442;7.370;2022-12-07T02:41:13;100097.97;;;6.72;91.25
71239;BME280;61342;51.442;7.370;2022-12-07T02:42:20;100096.66;;;6.73;91.06
71239;BME280;61342;51.442;7.370;2022-12-07T02:43:41;100099.25;;;6.71;91.16
71239;BME280;61342;51.442;7.370;2022-12-07T02:44:44;100086.00;;;6.68;91.35
71239;BME280;61342;51.442;7.370;2022-12-07T02:45:46;100104.72;;;6.74;90.99
71239;BME280;61342;51.442;7.370;2022-12-07T02:46:54;100093.56;;;6.71;91.27
71239;BME280;61342;51.442;7.370;2022-12-07T02:47:59;100096.66;;;6.73;91.07
71239;BME280;61342;51.442;7.370;2022-12-07T02:49:02;100088.06;;;6.67;91.29
71239;BME280;61342;51.442;7.370;2022-12-07T02:50:04;100083.41;;;6.70;91.08
71239;BME280;61342;51.442;7.370;2022-12-07T02:51:05;100086.81;;;6.74;91.06
71239;BME280;61342;51.442;7.370;2022-12-07T02:52:06;100090.69;;;6.71;91.25
71239;BME280;61342;51.442;7.370;2022-12-07T02:53:32;100089.91;;;6.70;91.32
71239;BME280;61342;51.442;7.370;2022-12-07T02:54:33;100090.97;;;6.73;91.01
71239;BME280;61342;51.442;7.370;2022-12-07T02:55:37;100094.09;;;6.75;91.01
71239;BME280;61342;51.442;7.370;2022-12-07T02:56:48;100099.00;;;6.74;91.10
71239;BME280;61342;51.442;7.370;2022-12-07T03:00:13;100095.38;;;6.74;91.06
71239;BME280;61342;51.442;7.370;2022-12-07T03:02:55;100091.25;;;6.75;91.17
71239;BME280;61342;51.442;7.370;2022-12-07T03:04:08;100093.81;;;6.73;91.29
71239;BME280;61342;51.442;7.370;2022-12-07T03:06:32;100095.13;;;6.72;91.36
71239;BME280;61342;51.442;7.370;2022-12-07T03:11:26;100100.31;;;6.73;91.07
71239;BME280;61342;51.442;7.370;2022-12-07T03:13:00;100094.84;;;6.70;90.92
71239;BME280;61342;51.442;7.370;2022-12-07T03:14:13;100095.59;;;6.70;90.88
71239;BME280;61342;51.442;7.370;2022-12-07T03:15:27;100094.84;;;6.70;91.00
71239;BME280;61342;51.442;7.370;2022-12-07T03:17:38;100086.00;;;6.68;90.75
71239;BME280;61342;51.442;7.370;2022-12-07T03:19:11;100096.13;;;6.69;90.87
71239;BME280;61342;51.442;7.370;2022-12-07T03:20:14;100094.84;;;6.70;90.80
71239;BME280;61342;51.442;7.370;2022-12-07T03:21:21;100085.22;;;6.67;90.63
71239;BME280;61342;51.442;7.370;2022-12-07T03:22:25;100091.72;;;6.68;90.97
71239;BME280;61342;51.442;7.370;2022-12-07T03:23:31;100093.00;;;6.67;90.87
71239;BME280;61342;51.442;7.370;2022-12-07T03:24:39;100087.53;;;6.69;90.66
71239;BME280;61342;51.442;7.370;2022-12-07T03:25:45;100087.28;;;6.67;90.49
71239;BME280;61342;51.442;7.370;2022-12-07T03:26:51;100088.34;;;6.69;90.77
71239;BME280;61342;51.442;7.370;2022-12-07T03:27:55;100090.91;;;6.67;90.80
71239;BME280;61342;51.442;7.370;2022-12-07T03:29:00;100087.00;;;6.65;90.66
71239;BME280;61342;51.442;7.370;2022-12-07T03:30:06;100096.13;;;6.69;90.70
71239;BME280;61342;51.442;7.370;2022-12-07T03:31:18;100091.72;;;6.68;90.71
71239;BME280;61342;51.442;7.370;2022-12-07T03:33:34;100090.91;;;6.67;90.57
71239;BME280;61342;51.442;7.370;2022-12-07T03:34:57;100081.28;;;6.65;90.46
71239;BME280;61342;51.442;7.370;2022-12-07T03:36:02;100086.50;;;6.66;90.59
71239;BME280;61342;51.442;7.370;2022-12-07T03:37:16;100081.81;;;6.63;90.70
71239;BME280;61342;51.442;7.370;2022-12-07T03:39:35;100086.75;;;6.63;90.61
71239;BME280;61342;51.442;7.370;2022-12-07T03:41:23;100079.75;;;6.64;90.51
71239;BME280;61342;51.442;7.370;2022-12-07T03:42:05;100074.25;;;6.60;90.76
71239;BME280;61342;51.442;7.370;2022-12-07T03:43:07;100074.25;;;6.60;90.24
71239;BME280;61342;51.442;7.370;2022-12-07T03:44:08;100089.09;;;6.64;90.49
71239;BME280;61342;51.442;7.370;2022-12-07T03:45:09;100075.53;;;6.59;90.42
71239;BME280;61342;51.442;7.370;2022-12-07T03:46:20;100078.19;;;6.63;90.54
71239;BME280;61342;51.442;7.370;2022-12-07T03:47:29;100087.00;;;6.65;90.45
71239;BME280;61342;51.442;7.370;2022-12-07T03:48:51;100089.31;;;6.61;90.45
71239;BME280;61342;51.442;7.370;2022-12-07T03:50:14;100075.78;;;6.56;90.63
71239;BME280;61342;51.442;7.370;2022-12-07T03:52:30;100091.16;;;6.64;90.42
71239;BME280;61342;51.442;7.370;2022-12-07T03:53:37;100085.16;;;6.62;90.67
71239;BME280;61342;51.442;7.370;2022-12-07T03:55:02;100079.47;;;6.62;90.39
71239;BME280;61342;51.442;7.370;2022-12-07T03:56:06;100083.38;;;6.64;90.46
71239;BME280;61342;51.442;7.370;2022-12-07T03:57:08;100085.47;;;6.64;90.45
71239;BME280;61342;51.442;7.370;2022-12-07T03:58:13;100088.31;;;6.64;90.23
71239;BME280;61342;51.442;7.370;2022-12-07T03:59:15;100077.88;;;6.61;90.30
71239;BME280;61342;51.442;7.370;2022-12-07T04:00:16;100086.75;;;6.63;90.49
71239;BME280;61342;51.442;7.370;2022-12-07T04:01:18;100077.38;;;6.62;90.26
71239;BME280;61342;51.442;7.370;2022-12-07T04:02:18;100082.31;;;6.62;90.45
71239;BME280;61342;51.442;7.370;2022-12-07T04:03:20;100081.03;;;6.63;90.32
71239;BME280;61342;51.442;7.370;2022-12-07T04:04:21;100078.69;;;6.61;90.07
71239;BME280;61342;51.442;7.370;2022-12-07T04:05:22;100082.53;;;6.58;90.02
71239;BME280;61342;51.442;7.370;2022-12-07T04:06:23;100072.34;;;6.52;90.03
71239;BME280;61342;51.442;7.370;2022-12-07T04:07:23;100089.31;;;6.61;90.20
71239;BME280;61342;51.442;7.370;2022-12-07T04:08:24;100067.16;;;6.50;90.03
71239;BME280;61342;51.442;7.370;2022-12-07T04:09:27;100073.41;;;6.54;90.03
71239;BME280;61342;51.442;7.370;2022-12-07T04:10:27;100072.34;;;6.52;90.19
71239;BME280;61342;51.442;7.370;2022-12-07T04:11:28;100073.94;;;6.53;90.07
71239;BME280;61342;51.442;7.370;2022-12-07T04:12:28;100069.75;;;6.48;89.79
71239;BME280;61342;51.442;7.370;2022-12-07T04:13:28;100086.97;;;6.59;89.92
71239;BME280;61342;51.442;7.370;2022-12-07T04:14:29;100085.38;;;6.58;89.99
71239;BME280;61342;51.442;7.370;2022-12-07T04:15:29;100080.47;;;6.59;90.06
71239;BME280;61342;51.442;7.370;2022-12-07T04:16:30;100069.25;;;6.50;90.07
71239;BME280;61342;51.442;7.370;2022-12-07T04:17:30;100092.97;;;6.61;89.79
71239;BME280;61342;51.442;7.370;2022-12-07T04:18:31;100080.91;;;6.52;90.02
71239;BME280;61342;51.442;7.370;2022-12-07T04:19:33;100082.50;;;6.53;89.70
71239;BME280;61342;51.442;7.370;2022-12-07T04:20:34;100083.56;;;6.55;89.76
71239;BME280;61342;51.442;7.370;2022-12-07T04:21:34;100078.06;;;6.52;89.54
71239;BME280;61342;51.442;7.370;2022-12-07T04:22:37;100072.81;;;6.45;89.87
71239;BME280;61342;51.442;7.370;2022-12-07T04:24:56;100062.66;;;6.38;89.45
71239;BME280;61342;51.442;7.370;2022-12-07T04:26:02;100068.91;;;6.42;89.78
71239;BME280;61342;51.442;7.370;2022-12-07T04:27:03;100059.53;;;6.36;89.74
71239;BME280;61342;51.442;7.370;2022-12-07T04:28:03;100057.75;;;6.39;89.87
71239;BME280;61342;51.442;7.370;2022-12-07T04:29:04;100057.66;;;6.33;89.68
71239;BME280;61342;51.442;7.370;2022-12-07T04:30:05;100060.59;;;6.39;89.96
71239;BME280;61342;51.442;7.370;2022-12-07T04:31:09;100063.44;;;6.39;89.61
71239;BME280;61342;51.442;7.370;2022-12-07T04:32:09;100070.47;;;6.43;89.78
71239;BME280;61342;51.442;7.370;2022-12-07T04:33:09;100065.53;;;6.44;89.79
71239;BME280;61342;51.442;7.370;2022-12-07T04:34:11;100068.13;;;6.42;89.61
71239;BME280;61342;51.442;7.370;2022-12-07T04:35:11;100061.09;;;6.37;89.78
71239;BME280;61342;51.442;7.370;2022-12-07T04:36:12;100068.69;;;6.46;89.88
71239;BME280;61342;51.442;7.370;2022-12-07T04:37:12;100076.53;;;6.51;89.75
71239;BME280;61342;51.442;7.370;2022-12-07T04:38:13;100060.84;;;6.41;89.77
71239;BME280;61342;51.442;7.370;2022-12-07T04:39:23;100078.53;;;6.45;89.56
71239;BME280;61342;51.442;7.370;2022-12-07T04:40:26;100079.59;;;6.47;89.78
71239;BME280;61342;51.442;7.370;2022-12-07T04:41:33;100087.13;;;6.50;89.64
71239;BME280;61342;51.442;7.370;2022-12-07T04:42:34;100089.22;;;6.50;89.56
71239;BME280;61342;51.442;7.370;2022-12-07T04:43:37;100071.50;;;6.40;89.71
71239;BME280;61342;51.442;7.370;2022-12-07T04:44:38;100087.13;;;6.50;89.47
71239;BME280;61342;51.442;7.370;2022-12-07T04:45:51;100081.16;;;6.48;89.61
71239;BME280;61342;51.442;7.370;2022-12-07T04:47:35;100076.19;;;6.43;89.73
71239;BME280;61342;51.442;7.370;2022-12-07T04:48:41;100064.44;;;6.36;89.68
71239;BME280;61342;51.442;7.370;2022-12-07T04:49:47;100071.50;;;6.40;89.76
71239;BME280;61342;51.442;7.370;2022-12-07T04:50:49;100080.66;;;6.50;89.72
71239;BME280;61342;51.442;7.370;2022-12-07T04:52:02;100056.63;;;6.31;89.82
71239;BME280;61342;51.442;7.370;2022-12-07T04:53:11;100090.50;;;6.49;89.50
71239;BME280;61342;51.442;7.370;2022-12-07T04:54:15;100067.38;;;6.41;89.71
71239;BME280;61342;51.442;7.370;2022-12-07T04:55:19;100062.66;;;6.38;89.71
71239;BME280;61342;51.442;7.370;2022-12-07T04:56:23;100079.09;;;6.49;89.54
71239;BME280;61342;51.442;7.370;2022-12-07T04:57:24;100051.69;;;6.31;89.76
71239;BME280;61342;51.442;7.370;2022-12-07T04:58:25;100052.47;;;6.32;89.55
71239;BME280;61342;51.442;7.370;2022-12-07T04:59:28;100053.78;;;6.31;89.69
71239;BME280;61342;51.442;7.370;2022-12-07T05:00:29;100052.25;;;6.35;89.59
71239;BME280;61342;51.442;7.370;2022-12-07T05:01:37;100062.13;;;6.40;89.79
71239;BME280;61342;51.442;7.370;2022-12-07T05:02:38;100060.84;;;6.41;89.44
71239;BME280;61342;51.442;7.370;2022-12-07T05:03:48;100061.53;;;6.30;89.79
71239;BME280;61342;51.442;7.370;2022-12-07T05:04:49;100046.50;;;6.30;89.80
71239;BME280;61342;51.442;7.370;2022-12-07T05:06:01;100040.78;;;6.30;89.49
71239;BME280;61342;51.442;7.370;2022-12-07T05:07:13;100047.78;;;6.29;89.46
71239;BME280;61342;51.442;7.370;2022-12-07T05:08:22;100080.09;;;6.46;89.46
71239;BME280;61342;51.442;7.370;2022-12-07T05:09:43;100051.38;;;6.24;89.37
71239;BME280;61342;51.442;7.370;2022-12-07T05:10:52;100060.53;;;6.33;89.49
71239;BME280;61342;51.442;7.370;2022-12-07T05:11:55;100041.00;;;6.27;89.36
71239;BME280;61342;51.442;7.370;2022-12-07T05:12:56;100067.28;;;6.36;89.68
71239;BME280;61342;51.442;7.370;2022-12-07T05:13:56;100047.28;;;6.30;89.39
71239;BME280;61342;51.442;7.370;2022-12-07T05:14:57;100074.91;;;6.44;89.61
71239;BME280;61342;51.442;7.370;2022-12-07T05:16:01;100074.09;;;6.44;89.36
71239;BME280;61342;51.442;7.370;2022-12-07T05:17:02;100053.28;;;6.32;89.71
71239;BME280;61342;51.442;7.370;2022-12-07T05:18:07;100059.75;;;6.33;89.61
71239;BME280;61342;51.442;7.370;2022-12-07T05:19:08;100062.91;;;6.35;89.42
71239;BME280;61342;51.442;7.370;2022-12-07T05:20:12;100079.03;;;6.43;89.30
71239;BME280;61342;51.442;7.370;2022-12-07T05:21:13;100064.94;;;6.34;89.62
71239;BME280;61342;51.442;7.370;2022-12-07T05:22:13;100051.16;;;6.28;89.64
71239;BME280;61342;51.442;7.370;2022-12-07T05:23:15;100060.03;;;6.35;89.60
71239;BME280;61342;51.442;7.370;2022-12-07T05:24:16;100079.56;;;6.42;89.30
71239;BME280;61342;51.442;7.370;2022-12-07T05:25:17;100052.16;;;6.25;89.41
71239;BME280;61342;51.442;7.370;2022-12-07T05:26:18;100082.41;;;6.42;89.61
71239;BME280;61342;51.442;7.370;2022-12-07T05:27:19;100043.09;;;6.26;89.60
71239;BME280;61342;51.442;7.370;2022-12-07T05:28:29;100062.09;;;6.34;89.32
71239;BME280;61342;51.442;7.370;2022-12-07T05:29:30;100065.47;;;6.33;89.42
71239;BME280;61342;51.442;7.370;2022-12-07T05:30:30;100066.31;;;6.39;89.38
71239;BME280;61342;51.442;7.370;2022-12-07T05:31:31;100076.69;;;6.42;89.25
71239;BME280;61342;51.442;7.370;2022-12-07T05:32:32;100068.31;;;6.33;89.18
71239;BME280;61342;51.442;7.370;2022-12-07T05:33:32;100069.94;;;6.39;89.38
71239;BME280;61342;51.442;7.370;2022-12-07T05:34:32;100064.94;;;6.34;89.56
71239;BME280;61342;51.442;7.370;2022-12-07T05:35:33;100067.28;;;6.36;89.47
71239;BME280;61342;51.442;7.370;2022-12-07T05:36:33;100066.31;;;6.39;89.38
71239;BME280;61342;51.442;7.370;2022-12-07T05:37:34;100080.84;;;6.41;89.33
71239;BME280;61342;51.442;7.370;2022-12-07T05:38:34;100070.69;;;6.40;89.04
71239;BME280;61342;51.442;7.370;2022-12-07T05:39:34;100070.94;;;6.36;89.42
71239;BME280;61342;51.442;7.370;2022-12-07T05:40:36;100070.44;;;6.38;89.27
71239;BME280;61342;51.442;7.370;2022-12-07T05:41:36;100068.34;;;6.38;89.41
71239;BME280;61342;51.442;7.370;2022-12-07T05:42:55;100068.59;;;6.35;89.23
71239;BME280;61342;51.442;7.370;2022-12-07T05:43:56;100069.88;;;6.34;89.22
71239;BME280;61342;51.442;7.370;2022-12-07T05:44:56;100070.16;;;6.36;89.16
71239;BME280;61342;51.442;7.370;2022-12-07T05:45:59;100067.28;;;6.36;89.18
71239;BME280;61342;51.442;7.370;2022-12-07T05:47:00;100068.88;;;6.37;89.26
71239;BME280;61342;51.442;7.370;2022-12-07T05:48:00;100071.16;;;6.33;89.17
71239;BME280;61342;51.442;7.370;2022-12-07T05:49:01;100071.47;;;6.35;89.13
71239;BME280;61342;51.442;7.370;2022-12-07T05:50:02;100064.69;;;6.32;89.36
71239;BME280;61342;51.442;7.370;2022-12-07T05:51:03;100056.06;;;6.27;89.36
71239;BME280;61342;51.442;7.370;2022-12-07T05:52:04;100067.25;;;6.30;89.35
71239;BME280;61342;51.442;7.370;2022-12-07T05:53:04;100066.75;;;6.32;89.24
71239;BME280;61342;51.442;7.370;2022-12-07T05:54:05;100063.13;;;6.31;89.38
71239;BME280;61342;51.442;7.370;2022-12-07T05:55:06;100066.47;;;6.30;89.08
71239;BME280;61342;51.442;7.370;2022-12-07T05:56:09;100047.94;;;6.20;89.16
71239;BME280;61342;51.442;7.370;2022-12-07T05:57:10;100057.34;;;6.26;89.07
71239;BME280;61342;51.442;7.370;2022-12-07T05:58:10;100067.75;;;6.29;89.26
71239;BME280;61342;51.442;7.370;2022-12-07T05:59:29;100053.94;;;6.22;89.09
71239;BME280;61342;51.442;7.370;2022-12-07T06:00:30;100053.94;;;6.22;89.18
71239;BME280;61342;51.442;7.370;2022-12-07T06:01:30;100062.81;;;6.29;89.25
71239;BME280;61342;51.442;7.370;2022-12-07T06:02:30;100060.97;;;6.27;88.80
71239;BME280;61342;51.442;7.370;2022-12-07T06:03:31;100061.28;;;6.29;89.00
71239;BME280;61342;51.442;7.370;2022-12-07T06:04:35;100055.28;;;6.27;89.22
71239;BME280;61342;51.442;7.370;2022-12-07T06:05:35;100058.63;;;6.25;89.23
71239;BME280;61342;51.442;7.370;2022-12-07T06:06:36;100055.56;;;6.29;89.02
71239;BME280;61342;51.442;7.370;2022-12-07T06:07:36;100054.00;;;6.28;89.04
71239;BME280;61342;51.442;7.370;2022-12-07T06:08:37;100059.69;;;6.28;89.50
71239;BME280;61342;51.442;7.370;2022-12-07T06:09:38;100046.97;;;6.23;89.08
71239;BME280;61342;51.442;7.370;2022-12-07T06:10:38;100065.66;;;6.29;89.22
71239;BME280;61342;51.442;7.370;2022-12-07T06:11:39;100055.56;;;6.29;89.28